KYKM/YKM METAR and TAF weather

Enter ICAO airport designator
Station Type Date Time Source
KYKM METAR 2023/02/06 00:53 UTC NOAA

KYKM 060053Z AUTO 16003KT 9SM BKN120 06/03 A2991 RMK AO2 SLP136 T00610033


Station Type Date Time Source
KYKM Decoded METAR 2023/02/06 00:53 UTC NOAA

YAKIMA AIR TERMINAL, WA, United States (KYKM) 46-34N 120-32W 324M
Feb 05, 2023 - 07:53 PM EST / 2023.02.06 0053 UTC
Wind: from the SSE (160 degrees) at 3 MPH (3 KT):0
Visibility: 9 mile(s):0
Sky conditions: mostly cloudy
Temperature: 43.0 F (6.1 C)
Dew Point: 37.9 F (3.3 C)
Relative Humidity: 82%
Pressure (altimeter): 29.91 in. Hg (1012 hPa)
ob: KYKM 060053Z AUTO 16003KT 9SM BKN120 06/03 A2991 RMK AO2 SLP136 T00610033
cycle: 1

Station Type Date Time Source
KYKM TAF 2023/02/05 21:15 UTC NOAA

TAF
AMD KYKM 052111Z 0521/0618 29005KT P6SM BKN070
FM060300 31005KT P6SM BKN060

Example: see airport list